createdAt,value
2019-04-14T00:04:24.703Z,14.70
2019-04-14T00:07:06.157Z,16.13
2019-04-14T00:09:49.760Z,14.17
2019-04-14T00:12:31.656Z,13.33
2019-04-14T00:15:25.944Z,16.37
2019-04-14T00:17:56.796Z,14.13
2019-04-14T00:20:38.248Z,13.80
2019-04-14T00:23:19.487Z,13.87
2019-04-14T00:26:01.150Z,13.73
2019-04-14T00:28:42.605Z,14.40
2019-04-14T00:31:23.954Z,16.30
2019-04-14T00:34:09.319Z,13.90
2019-04-14T00:39:39.849Z,15.90
2019-04-14T00:42:38.650Z,16.20
2019-04-14T00:48:13.084Z,15.47
2019-04-14T00:50:51.756Z,17.47
2019-04-14T00:53:33.870Z,15.40
2019-04-14T00:56:14.992Z,15.67
2019-04-14T00:58:56.202Z,17.13
2019-04-14T01:01:37.801Z,17.30
2019-04-14T01:04:19.483Z,17.37
2019-04-14T01:07:01.978Z,17.73
2019-04-14T01:09:44.140Z,19.17
2019-04-14T01:12:25.855Z,18.63
2019-04-14T01:15:07.261Z,18.30
2019-04-14T01:17:49.215Z,21.37
2019-04-14T01:20:31.746Z,20.53
2019-04-14T01:23:13.000Z,18.97
2019-04-14T01:25:54.198Z,19.17
2019-04-14T01:28:35.497Z,18.50
2019-04-14T01:31:18.367Z,18.40
2019-04-14T01:34:02.386Z,18.53
2019-04-14T01:36:43.916Z,18.07
2019-04-14T01:39:25.014Z,21.53
2019-04-14T01:44:52.527Z,20.13
2019-04-14T01:50:17.441Z,18.80
2019-04-14T01:56:10.164Z,18.67
2019-04-14T01:58:53.528Z,18.80
2019-04-14T02:01:35.004Z,20.33
2019-04-14T02:04:16.185Z,21.70
2019-04-14T02:06:57.657Z,20.20
2019-04-14T02:09:42.511Z,21.43
2019-04-14T02:12:23.819Z,20.23
2019-04-14T02:15:05.406Z,19.70
2019-04-14T02:17:46.510Z,21.13
2019-04-14T02:20:28.048Z,19.43
2019-04-14T02:25:53.855Z,20.63
2019-04-14T02:28:35.531Z,19.93
2019-04-14T02:31:35.621Z,21.13
2019-04-14T02:37:15.577Z,20.13
2019-04-14T02:39:54.058Z,21.40
2019-04-14T02:50:49.570Z,20.30
2019-04-14T02:53:37.045Z,22.30
2019-04-14T02:56:16.613Z,21.77
2019-04-14T02:58:58.339Z,22.70
2019-04-14T03:04:27.723Z,23.07
2019-04-14T03:07:16.519Z,23.13
2019-04-14T03:12:40.580Z,23.83
2019-04-14T03:15:29.578Z,27.57
2019-04-14T03:18:24.085Z,27.30
2019-04-14T03:26:54.498Z,28.00
2019-04-14T03:29:40.775Z,26.53
2019-04-14T03:32:39.555Z,25.80
2019-04-14T03:35:24.841Z,23.37
2019-04-14T03:37:54.084Z,26.77
2019-04-14T03:40:18.310Z,28.60
2019-04-14T03:43:10.733Z,26.03
2019-04-14T03:53:59.102Z,25.50
2019-04-14T03:56:22.553Z,28.13
2019-04-14T03:59:06.819Z,25.83
2019-04-14T04:04:36.102Z,29.10
2019-04-14T04:12:55.785Z,33.00
2019-04-14T04:18:24.037Z,28.83
2019-04-14T04:23:55.406Z,32.20
2019-04-14T04:29:24.515Z,33.93
2019-04-14T04:37:59.025Z,32.53
2019-04-14T04:40:40.402Z,35.50
2019-04-14T04:43:23.414Z,33.17
2019-04-14T04:46:03.165Z,32.80
2019-04-14T04:48:56.585Z,38.20
2019-04-14T04:51:27.391Z,34.57
2019-04-14T04:54:08.593Z,35.20
2019-04-14T04:56:51.509Z,34.83
2019-04-14T04:59:36.588Z,34.80
2019-04-14T05:02:17.946Z,33.63
2019-04-14T05:04:59.167Z,32.50
2019-04-14T05:07:40.551Z,33.17
2019-04-14T05:13:38.099Z,34.37
2019-04-14T05:16:24.051Z,37.40
2019-04-14T05:19:14.032Z,40.70
2019-04-14T05:21:49.432Z,34.17
2019-04-14T05:27:14.591Z,34.13
2019-04-14T05:30:00.327Z,31.53
2019-04-14T05:32:41.909Z,34.87
2019-04-14T05:35:23.416Z,35.17
2019-04-14T05:38:06.124Z,36.50
2019-04-14T05:40:50.190Z,39.70
2019-04-14T05:46:18.563Z,38.40
2019-04-14T05:48:59.963Z,42.70
2019-04-14T05:51:41.559Z,37.47
2019-04-14T05:54:23.129Z,39.03
2019-04-14T05:57:04.469Z,36.60
2019-04-14T05:59:46.210Z,36.30
2019-04-14T06:05:16.703Z,36.67
2019-04-14T06:07:57.635Z,40.37
2019-04-14T06:10:39.143Z,37.60
2019-04-14T06:16:09.485Z,35.97
2019-04-14T06:18:51.036Z,37.80
2019-04-14T06:21:32.347Z,36.50
2019-04-14T06:24:13.343Z,40.67
2019-04-14T06:29:42.332Z,37.70
2019-04-14T06:38:35.281Z,35.97
2019-04-14T06:41:19.590Z,36.27
2019-04-14T06:44:01.438Z,35.50
2019-04-14T06:46:43.307Z,37.13
2019-04-14T06:51:57.826Z,38.77
2019-04-14T06:54:28.129Z,39.20
2019-04-14T06:57:17.616Z,39.30
2019-04-14T07:00:06.689Z,38.10
2019-04-14T07:02:48.733Z,36.07
2019-04-14T07:11:01.214Z,39.10
2019-04-14T07:20:02.335Z,35.73
2019-04-14T07:22:40.850Z,37.07
2019-04-14T07:25:22.502Z,35.60
2019-04-14T07:28:03.593Z,35.70
2019-04-14T07:33:29.947Z,48.83
2019-04-14T07:36:14.473Z,52.70
2019-04-14T07:41:57.299Z,59.43
2019-04-14T07:47:42.664Z,60.17
2019-04-14T07:50:44.277Z,59.13
2019-04-14T07:53:28.905Z,63.27
2019-04-14T07:56:35.930Z,64.73
2019-04-14T07:59:42.351Z,66.17
2019-04-14T08:02:27.699Z,62.20
2019-04-14T08:05:17.027Z,59.40
2019-04-14T08:08:01.796Z,59.67
2019-04-14T08:13:27.903Z,60.43
2019-04-14T08:18:54.245Z,56.13
2019-04-14T08:21:35.270Z,57.07
2019-04-14T08:24:17.134Z,56.57
2019-04-14T08:29:31.770Z,61.57
2019-04-14T08:32:20.438Z,75.83
2019-04-14T08:35:02.436Z,93.23
2019-04-14T08:37:32.233Z,92.17
2019-04-14T08:40:20.941Z,103.67
2019-04-14T08:43:32.134Z,91.97
2019-04-14T08:49:40.267Z,81.00
2019-04-14T09:04:17.286Z,57.73
2019-04-14T09:10:07.149Z,62.03
2019-04-14T09:15:33.095Z,66.00
2019-04-14T09:21:01.417Z,74.00
2019-04-14T09:26:27.057Z,67.80
2019-04-14T09:29:08.608Z,73.33
2019-04-14T09:31:50.075Z,68.77
2019-04-14T09:34:31.691Z,66.47
2019-04-14T09:37:13.992Z,60.40
2019-04-14T09:39:55.026Z,54.27
2019-04-14T09:42:36.507Z,58.20
2019-04-14T09:45:17.502Z,56.63
2019-04-14T09:50:37.610Z,61.47
2019-04-14T09:56:12.359Z,56.60
2019-04-14T09:58:53.129Z,58.57
2019-04-14T10:01:39.942Z,49.57
2019-04-14T10:07:17.655Z,47.20
2019-04-14T10:09:58.857Z,45.67
2019-04-14T10:12:40.329Z,47.10
2019-04-14T10:15:21.162Z,48.33
2019-04-14T10:18:02.875Z,47.40
2019-04-14T10:20:44.139Z,47.77
2019-04-14T10:23:25.773Z,46.63
2019-04-14T10:28:57.268Z,53.10
2019-04-14T10:34:23.222Z,43.77
2019-04-14T10:39:50.516Z,47.43
2019-04-14T10:42:31.837Z,41.87
2019-04-14T10:45:13.353Z,44.70
2019-04-14T10:47:56.204Z,42.50
2019-04-14T10:50:37.158Z,44.40
2019-04-14T10:56:07.914Z,42.97
2019-04-14T10:58:49.455Z,43.07
2019-04-14T11:04:27.570Z,43.73
2019-04-14T11:09:53.967Z,42.87
2019-04-14T11:15:18.134Z,42.20
2019-04-14T11:18:00.075Z,41.67
2019-04-14T11:20:40.882Z,42.40
2019-04-14T11:26:06.645Z,43.97
2019-04-14T11:28:50.066Z,42.80
2019-04-14T11:31:52.804Z,45.10
2019-04-14T11:40:07.019Z,45.30
2019-04-14T11:42:52.535Z,50.47
2019-04-14T11:48:23.484Z,52.87
2019-04-14T11:51:04.266Z,47.77
2019-04-14T11:53:45.886Z,46.83
2019-04-14T11:56:27.697Z,46.20
2019-04-14T11:59:09.077Z,45.70
2019-04-14T12:05:12.882Z,39.60
2019-04-14T12:07:53.056Z,42.53
2019-04-14T12:10:34.242Z,41.10
2019-04-14T12:13:15.308Z,41.17
2019-04-14T12:15:56.434Z,41.90
2019-04-14T12:18:37.930Z,43.03
2019-04-14T12:21:07.818Z,42.93
2019-04-14T12:23:56.768Z,41.77
2019-04-14T12:26:38.318Z,44.67
2019-04-14T12:29:21.317Z,44.43
2019-04-14T12:32:06.493Z,45.63
2019-04-14T12:34:48.122Z,46.40
2019-04-14T12:37:29.702Z,46.00
2019-04-14T12:40:13.888Z,50.70
2019-04-14T12:46:06.355Z,49.83
2019-04-14T12:51:35.631Z,52.43
2019-04-14T12:54:17.281Z,50.90
2019-04-14T12:56:59.226Z,51.50
2019-04-14T12:59:40.734Z,48.77
2019-04-14T13:02:25.217Z,54.53
2019-04-14T13:05:06.584Z,54.13
2019-04-14T13:07:48.241Z,59.67
2019-04-14T13:13:15.222Z,56.50
2019-04-14T13:15:57.245Z,56.30
2019-04-14T13:18:39.080Z,57.03
2019-04-14T13:29:43.612Z,49.67
2019-04-14T13:32:35.772Z,53.67
2019-04-14T13:35:09.805Z,50.87
2019-04-14T13:40:30.102Z,50.10
2019-04-14T13:43:13.553Z,51.80
2019-04-14T13:45:55.368Z,53.17
2019-04-14T13:48:38.604Z,51.30
2019-04-14T13:54:05.524Z,51.83
2019-04-14T13:59:31.198Z,48.90
2019-04-14T14:02:12.719Z,49.53
2019-04-14T14:07:43.469Z,47.20
2019-04-14T14:10:25.052Z,44.53
2019-04-14T14:19:12.356Z,50.47
2019-04-14T14:22:12.749Z,47.83
2019-04-14T14:25:16.253Z,46.60
2019-04-14T14:27:58.394Z,43.73
2019-04-14T14:30:40.931Z,47.40
2019-04-14T14:36:11.745Z,46.47
2019-04-14T14:38:55.013Z,45.33
2019-04-14T14:44:23.700Z,48.23
2019-04-14T14:50:10.594Z,43.07
2019-04-14T14:52:52.285Z,43.67
2019-04-14T14:55:33.325Z,43.47
2019-04-14T14:58:16.474Z,41.53
2019-04-14T15:04:06.303Z,41.53
2019-04-14T15:06:48.072Z,42.13
2019-04-14T15:09:29.954Z,40.30
2019-04-14T15:12:11.585Z,42.17
2019-04-14T15:14:52.893Z,41.10
2019-04-14T15:17:34.950Z,45.00
2019-04-14T15:22:55.740Z,42.67
2019-04-14T15:28:25.873Z,42.83
2019-04-14T15:31:08.284Z,41.80
2019-04-14T15:33:50.043Z,41.93
2019-04-14T15:39:15.543Z,45.73
2019-04-14T15:41:56.961Z,59.60
2019-04-14T15:47:32.109Z,45.63
2019-04-14T15:50:13.723Z,44.40
2019-04-14T15:55:46.305Z,45.27
2019-04-14T16:01:34.324Z,45.07
2019-04-14T16:04:15.993Z,44.23
2019-04-14T16:10:03.568Z,44.50
2019-04-14T16:15:40.628Z,43.27
2019-04-14T16:21:24.641Z,43.70
2019-04-14T16:24:06.314Z,46.10
2019-04-14T16:32:48.142Z,43.57
2019-04-14T16:38:14.927Z,44.20
2019-04-14T16:40:58.669Z,44.27
2019-04-14T16:43:40.575Z,47.50
2019-04-14T16:46:24.314Z,44.93
2019-04-14T16:49:07.630Z,43.00
2019-04-14T16:51:52.011Z,46.33
2019-04-14T16:57:47.354Z,46.80
2019-04-14T17:03:14.013Z,43.37
2019-04-14T17:05:55.869Z,58.00
2019-04-14T17:08:37.338Z,47.03
2019-04-14T17:14:08.254Z,45.13
2019-04-14T17:22:34.913Z,48.97
2019-04-14T17:28:09.784Z,60.73
2019-04-14T17:30:58.577Z,46.87
2019-04-14T17:36:49.572Z,53.40
2019-04-14T17:45:17.519Z,46.10
2019-04-14T17:48:02.068Z,45.13
2019-04-14T17:51:03.628Z,44.17
2019-04-14T17:53:52.301Z,46.20
2019-04-14T17:59:29.422Z,49.67
2019-04-14T18:05:20.238Z,43.77
2019-04-14T18:08:09.268Z,45.53
2019-04-14T18:10:53.693Z,44.20
2019-04-14T18:19:48.725Z,43.40
2019-04-14T18:22:33.643Z,42.70
2019-04-14T18:34:46.720Z,43.57
2019-04-14T18:40:26.535Z,43.37
2019-04-14T18:46:19.372Z,45.03
2019-04-14T18:49:26.796Z,44.03
2019-04-14T18:52:11.030Z,46.50
2019-04-14T18:55:02.183Z,45.70
2019-04-14T18:58:03.303Z,44.23
2019-04-14T19:00:43.123Z,44.67
2019-04-14T19:03:24.802Z,44.07
2019-04-14T19:06:06.300Z,43.30
2019-04-14T19:08:47.229Z,47.17
2019-04-14T19:11:48.949Z,44.87
2019-04-14T19:14:33.086Z,47.43
2019-04-14T19:20:15.242Z,49.03
2019-04-14T19:22:59.103Z,47.67
2019-04-14T19:25:40.305Z,50.80
2019-04-14T19:28:21.693Z,50.47
2019-04-14T19:33:47.345Z,53.37
2019-04-14T19:39:13.376Z,54.13
2019-04-14T19:41:54.808Z,54.93
2019-04-14T19:44:36.034Z,53.90
2019-04-14T19:50:02.553Z,54.10
2019-04-14T19:52:43.527Z,55.00
2019-04-14T19:55:25.260Z,54.00
2019-04-14T19:58:06.288Z,55.17
2019-04-14T20:03:33.161Z,55.30
2019-04-14T20:06:13.773Z,53.33
2019-04-14T20:08:55.660Z,52.20
2019-04-14T20:11:40.091Z,53.03
2019-04-14T20:17:08.702Z,51.63
2019-04-14T20:22:34.689Z,49.43
2019-04-14T20:25:38.174Z,50.63
2019-04-14T20:28:30.992Z,48.93
2019-04-14T20:31:37.961Z,47.27
2019-04-14T20:34:19.317Z,47.73
2019-04-14T20:37:00.844Z,57.37
2019-04-14T20:39:41.694Z,48.40
2019-04-14T20:42:22.308Z,45.77
2019-04-14T20:45:05.108Z,45.40
2019-04-14T20:50:25.057Z,46.87
2019-04-14T20:55:57.895Z,43.80
2019-04-14T20:58:39.216Z,43.93
2019-04-14T21:01:20.994Z,40.97
2019-04-14T21:07:16.019Z,38.57
2019-04-14T21:16:12.925Z,40.77
2019-04-14T21:18:56.970Z,39.83
2019-04-14T21:21:51.789Z,39.80
2019-04-14T21:24:46.268Z,37.80
2019-04-14T21:27:41.368Z,35.13
2019-04-14T21:33:51.921Z,35.53
2019-04-14T21:36:37.812Z,34.50
2019-04-14T21:42:08.093Z,33.20
2019-04-14T21:44:49.337Z,33.03
2019-04-14T21:47:33.577Z,31.67
2019-04-14T21:50:15.085Z,33.43
2019-04-14T21:52:56.772Z,32.70
2019-04-14T21:55:38.407Z,29.77
2019-04-14T22:01:45.296Z,30.53
2019-04-14T22:10:38.625Z,28.83
2019-04-14T22:13:20.833Z,27.47
2019-04-14T22:16:02.116Z,27.07
2019-04-14T22:18:43.201Z,27.90
2019-04-14T22:21:24.573Z,29.77
2019-04-14T22:24:01.126Z,28.73
2019-04-14T22:26:44.482Z,28.57
2019-04-14T22:29:26.154Z,29.33
2019-04-14T22:35:02.750Z,27.37
2019-04-14T22:37:44.532Z,27.33
2019-04-14T22:40:28.618Z,26.70
2019-04-14T22:43:09.913Z,27.70
2019-04-14T22:45:51.128Z,28.20
2019-04-14T22:48:32.873Z,27.43
2019-04-14T22:51:14.507Z,26.87
2019-04-14T22:53:55.954Z,29.03
2019-04-14T22:56:39.382Z,27.60
2019-04-14T22:59:20.170Z,27.30
2019-04-14T23:02:04.597Z,26.93
2019-04-14T23:07:49.032Z,25.77
2019-04-14T23:13:37.569Z,28.43
2019-04-14T23:19:09.778Z,24.73
2019-04-14T23:30:06.914Z,25.90
2019-04-14T23:32:48.654Z,24.97
2019-04-14T23:35:29.620Z,26.60
2019-04-14T23:38:10.431Z,26.63
2019-04-14T23:40:52.074Z,26.33
2019-04-14T23:43:33.280Z,26.23
2019-04-14T23:46:14.195Z,26.37
2019-04-14T23:48:55.600Z,25.27
2019-04-14T23:51:39.971Z,24.73
2019-04-14T23:57:06.728Z,25.77
2019-04-14T23:59:48.266Z,24.93
